Vitor Machado

Scout - Grêmio
21 Nov 2027
Sunday
Process

Personality

Adaptability (14) Ambition (19) Controversy (19) Loyalty (16) Pressure (9) Professionalism (3) Sportsmanship (1) Temperament (5)

Profile

Coaching Style Democratic
License Continental A
Determination 13
Man Management 7
Motivating 14
Discipline 6
Job Satisfaction
100%
Fatigue
0%
Role Scout
Wage 59.0K p/w
Contract 14.03.2028

Performance

Behaviour Good
Training Effectiveness
56%
Player Development
70%
Injury Prevention
50%
Tactical Implementation
65%

Recent Events

Attended a recruitment meeting 7d ago
Recommended a transfer target 7d ago
Attended a recruitment meeting 14d ago
Recommended a transfer target 14d ago
Attended a recruitment meeting 21d ago
Recommended a transfer target 21d ago
Attended a recruitment meeting 28d ago
Recommended a transfer target 28d ago

Currently Monitoring

118
Player Club Status Ability Confidence Watched Last Observed Latest Vote
Luke McNally Bristol City Active 133 / 129 40% 1 06.07.2027 -
Milan van Ewijk Coventry City Active 123 / 129 40% 1 06.07.2027 -
Gustavo Caballero Santos Lost 119 / 120 62% 1 05.07.2027 -
Memphis Depay Corinthians Active 133 / 146 62% 1 03.06.2027 Approve
Zian Flemming Ipswich Town Active 121 / 129 40% 2 01.06.2027 -
Tyrese Campbell Sheffield United Active 134 / 127 40% 4 27.05.2027 -
Patson Daka Leicester City Active 138 / 130 40% 2 27.05.2027 -
Jarrod Bowen West Ham United Active 151 / 156 40% 1 26.05.2027 -
Ismaïla Sarr Crystal Palace Active 151 / 149 40% 2 23.05.2027 -
Rodrigo Muniz Fulham Active 149 / 134 40% 3 21.05.2027 -
Thiago Brentford Active 146 / 147 40% 3 20.05.2027 -
Elijah Adebayo Luton Town Active 138 / 120 40% 2 11.05.2027 -
Georginio Rutter Brighton Active 147 / 147 40% 2 11.05.2027 -
Samu Aghehowa Nottingham Forest Active 139 / 149 40% 2 09.05.2027 -
Patrick Cutrone Monza Active 130 / 130 40% 2 09.05.2027 -
Kyle Wootton Stockport County Active 110 / 115 40% 1 02.05.2027 -
Yousef Salech Cardiff City Active 130 / 129 40% 1 02.05.2027 -
Giacomo Raspadori Atalanta Active 154 / 145 40% 1 01.05.2027 -
Assane Diao Como Active 158 / 149 40% 1 29.04.2027 -
Gianluca Scamacca Atalanta Active 148 / 149 40% 2 25.04.2027 -
Justo Giani Umraniyespor Active 112 / 119 40% 2 25.04.2027 -
Gonzalo Fulham Active 138 / 145 40% 2 24.04.2027 -
Oli McBurnie Hull City Active 137 / 129 40% 1 17.04.2027 -
Aune Heggebø West Bromwich Albion Active 117 / 128 40% 1 16.04.2027 -
Mohamed-Ali Cho Hull City Active 140 / 137 40% 2 14.04.2027 -
Barış Alper Yılmaz Galatasaray Active 154 / 143 40% 2 11.04.2027 -
Shaylon Mirassol Active 134 / 124 58% 1 28.12.2026 -
Robin Roefs Sunderland Active 141 / 140 40% 1 28.12.2026 -
Fran Vieites Walsall Active 110 / 120 40% 1 28.12.2026 -
Brent Gabriel Zulte Waregem Active 118 / 114 40% 1 22.12.2026 -
Rubén Duarte Pumas UNAM Active 126 / 131 40% 1 14.12.2026 -
André-Franck Zambo Anguissa Napoli Active 151 / 157 40% 1 14.12.2026 -
Erick Vitória Active 125 / 125 58% 1 07.12.2026 -
Iván Fresneda Sporting CP Active 132 / 142 40% 4 30.11.2026 -
Alan Varela Porto Active 134 / 138 40% 5 30.11.2026 -
João Palhinha Benfica Lost 156 / 150 40% 2 28.11.2026 -
Brais Méndez RC Lens Active 141 / 149 40% 1 28.11.2026 -
Matthew Targett Hull City Active 146 / 126 40% 1 27.11.2026 -
Bright Arrey-Mbi Braga Active 147 / 139 40% 1 27.11.2026 -
Anthony Patterson Wrexham Active 143 / 131 40% 1 27.11.2026 -
Samuel Soares Benfica Active 130 / 124 40% 1 27.11.2026 -
Alexey Miranchuk Atlanta United FC Active 138 / 144 40% 2 25.11.2026 -
Leo Ceara Kashima Antlers Active 138 / 137 40% 3 25.11.2026 -
Tomáš Chorý Slavia Prague Active 145 / 144 40% 2 24.11.2026 -
Geny Sporting CP Active 158 / 139 40% 3 23.11.2026 -
João Carvalho Estoril Praia Active 142 / 128 40% 2 21.11.2026 -
Heorhii Sudakov Benfica Active 148 / 144 40% 1 15.11.2026 -
Pau Víctor Braga Active 129 / 137 40% 2 14.11.2026 -
Ivan Toney Al-Ahli Active 156 / 145 40% 4 13.11.2026 -
Eden Lukaku KV Oostende Active 160 / 156 40% 7 11.11.2026 -
Carlos Rodríguez Cruz Azul Active 126 / 132 40% 2 11.11.2026 -
Lucas Veríssimo Santos Active 134 / 130 40% 1 10.11.2026 -
Joaquín Piquerez Palmeiras Active 134 / 137 40% 1 09.11.2026 -
Léo Ortiz Flamengo Active 152 / 141 40% 1 07.11.2026 -
Vitinho Botafogo Active 136 / 131 40% 1 07.11.2026 -
Leandro Barreiro Benfica Active 125 / 137 40% 4 05.11.2026 -
Eddie Nketiah Crystal Palace Active 125 / 138 40% 1 04.11.2026 -
Esteban Lepaul Stade Rennais Active 133 / 143 40% 2 01.11.2026 -
Rodrigo Garro Corinthians Active 147 / 131 40% 2 30.10.2026 -
Agustín Palavecino Cruz Azul Active 131 / 139 40% 1 28.10.2026 -
William Gomes Porto Active 140 / 150 40% 2 25.10.2026 -
Renan Lodi Atlético Mineiro Active 128 / 135 40% 2 24.10.2026 -
Lisandro Martínez Ajax Active 160 / 149 40% 1 24.10.2026 -
William Cruzeiro Active 143 / 135 40% 1 19.10.2026 -
Tomás Araújo Benfica Active 141 / 142 40% 1 19.10.2026 -
Nehuén Pérez Porto Active 145 / 136 40% 2 17.10.2026 -
Jacob Greaves Ipswich Town Active 131 / 128 40% 1 17.10.2026 -
Noah Okafor Leeds United Active 135 / 142 40% 3 16.10.2026 -
Zion Suzuki Aston Villa Active 130 / 146 40% 1 16.10.2026 -
Manuel Roffo Hajduk Split Active 122 / 134 40% 1 16.10.2026 -
Caio Alexandre Bahia Active 125 / 138 40% 1 15.10.2026 -
Che Adams Torino Active 141 / 131 40% 2 12.10.2026 -
Andrea Pinamonti Lazio Active 145 / 130 40% 2 11.10.2026 -
Steven Bergwijn Al-Ittihad Active 152 / 146 40% 1 11.10.2026 -
Sergi Altimira Sporting CP Active 122 / 144 40% 1 05.10.2026 -
Cezary Miszta Rio Ave Active 126 / 135 40% 1 03.10.2026 -
Ennio van der Gouw Rio Ave Active 122 / 119 40% 1 03.10.2026 -
Dwight McNeil Crystal Palace Active 128 / 138 40% 1 28.09.2026 -
Yoan Bonny Inter Active 132 / 150 40% 1 26.09.2026 -
Francisco Meixedo Feirense Active 127 / 116 40% 1 24.09.2026 -
Carlos Miguel Palmeiras Active 137 / 130 40% 1 24.09.2026 -
Arthur Flamengo Active 134 / 135 40% 1 23.09.2026 -
Allan Saint-Maximin Charlotte Football Club Active 137 / 137 40% 1 21.09.2026 -
João Valido Chaves Active 118 / 108 40% 1 21.09.2026 -
Gonçalo Tabuaço Maritimo Active 116 / 108 40% 1 21.09.2026 -
Lucas Paquetá Flamengo Active 130 / 133 40% 1 20.09.2026 -
Jean-Baptiste Gorby Braga Active 125 / 137 40% 1 20.09.2026 -
Víctor Gómez Braga Active 150 / 137 40% 1 17.09.2026 -
Alberto Costa Porto Active 135 / 143 40% 1 17.09.2026 -
Roberto Fernández Braga Active 121 / 145 40% 1 16.09.2026 -
Jan Bednarek Porto Active 134 / 140 40% 1 15.09.2026 -
Dodi Lukébakio Benfica Active 129 / 144 40% 1 13.09.2026 -
Pedro Flamengo Active 128 / 142 40% 1 13.09.2026 -
Nicolò Zaniolo Udinese Active 145 / 140 40% 1 12.09.2026 -
Fredrik Aursnes Benfica Active 145 / 150 40% 4 11.09.2026 -
Martinelli Fluminense Active 128 / 139 40% 1 11.09.2026 -
João Gonçalves Oliveirense Active 128 / 117 40% 1 11.09.2026 -
Nico González Newcastle United Active 163 / 159 40% 1 09.09.2026 -
Julián Quiñones Al-Qadisiyah Active 132 / 141 40% 1 05.09.2026 -
Alexis Vega Feyenoord Active 143 / 150 40% 1 05.09.2026 -
Andreas Pereira Palmeiras Active 147 / 143 40% 1 03.09.2026 -
Luis Romo Guadalajara Active 143 / 137 40% 1 01.09.2026 -
Victor Froholdt Porto Active 159 / 161 40% 1 01.09.2026 -
Ángel Correa River Plate Active 143 / 141 40% 1 29.08.2026 -
Dominic Calvert-Lewin Leeds United Active 124 / 142 40% 2 20.08.2026 -
Leon Goretzka Aston Villa Active 138 / 153 40% 1 20.08.2026 -
Richarlison Tottenham Active 156 / 143 40% 1 19.08.2026 -
Igor Paixão Olympique de Marseille Active 138 / 149 40% 1 14.08.2026 -
Pepê Porto Active 160 / 140 40% 1 13.08.2026 -
Alexander Sørloth Atlético Madrid Active 145 / 156 40% 2 09.08.2026 -
Andreas Schjelderup Benfica Active 138 / 134 40% 2 08.08.2026 -
Álvaro Carreras Real Madrid Active 140 / 151 40% 1 08.08.2026 -
Pablo Rosario Porto Active 124 / 137 40% 1 07.08.2026 -
Eduardo Quaresma Sporting CP Active 125 / 134 40% 1 06.08.2026 -
Gustaf Lagerbielke Braga Active 119 / 134 40% 1 06.08.2026 -
Joshua Zirkzee Manchester United Active 140 / 139 40% 1 06.08.2026 -
Carl Starfelt Celta Active 153 / 139 40% 1 04.08.2026 -
Ricardo Horta Braga Active 155 / 146 40% 2 03.08.2026 -